Time;durP1;ratioP1;P1;durP2;ratioP2;P2;SDS_P1;SDS_P2;PMS_P1;PMS_P2;Temp;Humidity;BMP_temperature;BMP_pressure;BME280_temperature;BME280_humidity;BME280_pressure;Samples;Min_cycle;Max_cycle;Signal;HPM_P1;HPM_P2
2024/04/11 00:01:18;;;;;;;;;22.25;22.00;;;;;;;;6493279;31;9064;-74
2024/04/11 00:07:21;;;;;;;;;23.75;22.00;;;;;;;;6492403;39;8930;-75
2024/04/11 00:13:23;;;;;;;;;22.00;18.25;;;;;;;;6492947;46;8914;-74
2024/04/11 00:19:24;;;;;;;;;25.25;22.00;;;;;;;;6492375;46;8926;-74
2024/04/11 00:25:26;;;;;;;;;21.50;20.75;;;;;;;;6492835;39;8885;-73
2024/04/11 00:31:28;;;;;;;;;23.75;22.50;;;;;;;;6493087;39;8901;-73
2024/04/11 00:37:31;;;;;;;;;17.25;17.25;;;;;;;;6493197;39;9494;-73
2024/04/11 00:43:35;;;;;;;;;25.25;23.75;;;;;;;;6493459;39;8858;-74
2024/04/11 00:49:38;;;;;;;;;23.00;23.00;;;;;;;;6492749;39;8866;-74
2024/04/11 00:55:41;;;;;;;;;26.00;26.00;;;;;;;;6492393;46;8846;-75
2024/04/11 01:01:46;;;;;;;;;20.00;20.00;;;;;;;;6493879;39;8969;-72
2024/04/11 01:07:53;;;;;;;;;27.75;22.00;;;;;;;;6496562;39;8964;-73
2024/04/11 01:13:55;;;;;;;;;26.25;21.25;;;;;;;;6495429;39;8902;-76
2024/04/11 01:19:57;;;;;;;;;18.50;17.50;;;;;;;;6492685;31;9000;-75
2024/04/11 01:25:58;;;;;;;;;23.00;23.00;;;;;;;;6492969;39;8933;-75
2024/04/11 01:31:59;;;;;;;;;26.33;25.67;;;;;;;;6492332;39;9030;-73
2024/04/11 01:38:00;;;;;;;;;24.67;22.00;;;;;;;;6491554;46;9001;-76
2024/04/11 01:44:03;;;;;;;;;22.50;21.25;;;;;;;;6492995;39;8976;-73
2024/04/11 01:50:06;;;;;;;;;25.50;22.75;;;;;;;;6491592;47;8850;-74
2024/04/11 01:56:09;;;;;;;;;27.75;26.50;;;;;;;;6491414;47;8874;-73
2024/04/11 02:02:14;;;;;;;;;27.50;22.50;;;;;;;;6491830;39;8962;-74
2024/04/11 02:08:17;;;;;;;;;26.25;25.50;;;;;;;;6491757;47;8922;-74
2024/04/11 02:14:22;;;;;;;;;29.50;27.50;;;;;;;;6492212;39;8989;-74
2024/04/11 02:20:24;;;;;;;;;28.25;27.75;;;;;;;;6491618;46;8866;-74
2024/04/11 02:26:27;;;;;;;;;25.75;24.00;;;;;;;;6494600;39;8864;-74
2024/04/11 02:32:31;;;;;;;;;25.25;23.50;;;;;;;;6493191;46;8997;-73
2024/04/11 02:38:33;;;;;;;;;28.25;25.25;;;;;;;;6493766;46;9017;-72
2024/04/11 02:44:35;;;;;;;;;20.00;20.00;;;;;;;;6493680;46;9036;-73
2024/04/11 02:50:36;;;;;;;;;19.50;19.00;;;;;;;;6493275;39;9604;-74
2024/04/11 02:56:37;;;;;;;;;25.25;23.00;;;;;;;;6493501;39;8854;-73
2024/04/11 03:02:38;;;;;;;;;22.00;21.75;;;;;;;;6493104;39;8977;-73
2024/04/11 03:08:42;;;;;;;;;29.25;25.25;;;;;;;;6493274;39;8901;-74
2024/04/11 03:14:46;;;;;;;;;25.25;23.00;;;;;;;;6493612;39;8981;-74
2024/04/11 03:20:55;;;;;;;;;33.50;28.75;;;;;;;;6492827;39;8965;-72
2024/04/11 03:27:00;;;;;;;;;27.00;25.00;;;;;;;;6493690;31;8802;-73
2024/04/11 03:33:05;;;;;;;;;29.00;22.75;;;;;;;;6492588;39;8862;-74
2024/04/11 03:39:12;;;;;;;;;25.75;25.00;;;;;;;;6492318;39;8858;-74
2024/04/11 03:45:22;;;;;;;;;24.75;23.50;;;;;;;;6493471;39;8874;-73
2024/04/11 03:51:39;;;;;;;;;27.25;25.75;;;;;;;;6491723;39;8878;-74
2024/04/11 03:57:40;;;;;;;;;30.00;27.75;;;;;;;;6492775;46;8937;-74
2024/04/11 04:03:54;;;;;;;;;23.50;22.50;;;;;;;;6471489;39;9025;-70
2024/04/11 04:09:56;;;;;;;;;25.50;23.00;;;;;;;;6493436;39;8999;-69
2024/04/11 04:15:58;;;;;;;;;25.00;25.00;;;;;;;;6493781;39;8955;-71
2024/04/11 04:22:00;;;;;;;;;27.00;23.75;;;;;;;;6493410;39;8974;-72
2024/04/11 04:28:03;;;;;;;;;29.00;22.50;;;;;;;;6493135;39;8841;-71
2024/04/11 04:34:05;;;;;;;;;28.50;23.50;;;;;;;;6492471;39;8944;-72
2024/04/11 04:40:07;;;;;;;;;22.75;20.50;;;;;;;;6493269;39;9047;-70
2024/04/11 04:46:08;;;;;;;;;25.00;24.50;;;;;;;;6493218;46;8841;-71
2024/04/11 04:52:13;;;;;;;;;26.25;26.00;;;;;;;;6493574;39;8936;-70
2024/04/11 04:58:15;;;;;;;;;25.00;23.50;;;;;;;;6492332;39;8907;-71
2024/04/11 05:04:21;;;;;;;;;19.00;18.67;;;;;;;;6493867;31;9544;-70
2024/04/11 05:10:23;;;;;;;;;27.75;25.00;;;;;;;;6492491;31;9030;-71
2024/04/11 05:16:28;;;;;;;;;31.25;26.25;;;;;;;;6493824;39;8836;-71
2024/04/11 05:22:31;;;;;;;;;25.67;25.67;;;;;;;;6492455;39;9019;-70
2024/04/11 05:28:35;;;;;;;;;25.75;23.75;;;;;;;;6492800;46;8857;-69
2024/04/11 05:34:36;;;;;;;;;35.25;30.75;;;;;;;;6482054;39;8889;-70
2024/04/11 05:40:38;;;;;;;;;70.75;55.00;;;;;;;;6492004;39;8940;-70
2024/04/11 05:46:45;;;;;;;;;54.50;44.25;;;;;;;;6512931;36;183863;-68
2024/04/11 05:52:48;;;;;;;;;25.67;24.00;;;;;;;;6519237;36;8892;-69
2024/04/11 05:58:53;;;;;;;;;24.33;24.00;;;;;;;;6494694;46;8952;-67
2024/04/11 06:04:56;;;;;;;;;38.00;34.00;;;;;;;;6495845;39;9730;-68
2024/04/11 06:10:57;;;;;;;;;45.25;35.75;;;;;;;;6493784;46;9001;-69
2024/04/11 06:16:59;;;;;;;;;29.33;27.67;;;;;;;;6492973;39;9675;-68
2024/04/11 06:23:08;;;;;;;;;34.00;29.00;;;;;;;;6491570;39;9801;-68
2024/04/11 06:29:11;;;;;;;;;25.33;23.00;;;;;;;;6487900;39;9322;-68
2024/04/11 06:35:13;;;;;;;;;17.67;17.00;;;;;;;;6490140;39;8957;-68
2024/04/11 06:41:22;;;;;;;;;29.00;26.00;;;;;;;;6491528;39;8958;-68
2024/04/11 06:47:23;;;;;;;;;31.33;25.33;;;;;;;;6492811;39;8863;-68
2024/04/11 06:53:24;;;;;;;;;21.33;18.00;;;;;;;;6492149;39;8929;-69
2024/04/11 06:59:32;;;;;;;;;17.67;16.67;;;;;;;;6492944;31;8988;-70
2024/04/11 07:05:33;;;;;;;;;31.00;27.33;;;;;;;;6492309;39;8960;-70
2024/04/11 07:11:40;;;;;;;;;14.00;14.00;;;;;;;;6489357;46;9066;-69
2024/04/11 07:17:45;;;;;;;;;19.67;18.00;;;;;;;;6488696;39;8915;-69
2024/04/11 07:23:53;;;;;;;;;15.00;15.00;;;;;;;;6488849;46;8928;-71
2024/04/11 07:29:59;;;;;;;;;22.67;20.00;;;;;;;;6489807;31;8917;-71
2024/04/11 07:36:01;;;;;;;;;16.33;14.00;;;;;;;;6489688;39;9074;-70
2024/04/11 07:42:18;;;;;;;;;21.00;19.00;;;;;;;;6488930;31;9071;-69
2024/04/11 07:48:23;;;;;;;;;22.00;21.33;;;;;;;;6485260;39;9743;-68
2024/04/11 07:54:25;;;;;;;;;21.67;20.67;;;;;;;;6488939;31;8941;-71
2024/04/11 08:00:27;;;;;;;;;28.67;25.33;;;;;;;;6490343;39;8918;-71
2024/04/11 08:06:34;;;;;;;;;17.00;16.67;;;;;;;;6488475;31;8951;-72
2024/04/11 08:12:41;;;;;;;;;19.00;19.00;;;;;;;;6488435;46;8892;-69
2024/04/11 08:18:44;;;;;;;;;22.33;21.00;;;;;;;;6489509;39;9133;-69
2024/04/11 08:24:45;;;;;;;;;31.00;30.67;;;;;;;;6488013;39;8924;-69
2024/04/11 08:30:48;;;;;;;;;18.75;18.75;;;;;;;;6489909;39;9590;-71
2024/04/11 08:36:49;;;;;;;;;21.67;20.33;;;;;;;;6488677;39;9619;-69
2024/04/11 08:42:54;;;;;;;;;19.50;19.50;;;;;;;;6488519;39;8941;-70
2024/04/11 08:48:56;;;;;;;;;20.33;17.33;;;;;;;;6485340;31;9369;-70
2024/04/11 08:54:59;;;;;;;;;27.33;25.00;;;;;;;;6488698;31;9056;-70
2024/04/11 09:01:06;;;;;;;;;18.50;17.00;;;;;;;;6488478;39;9099;-70
2024/04/11 09:07:20;;;;;;;;;17.75;16.75;;;;;;;;6488199;39;9049;-69
2024/04/11 09:13:23;;;;;;;;;25.50;23.50;;;;;;;;6487894;39;8914;-70
2024/04/11 09:19:26;;;;;;;;;23.00;21.00;;;;;;;;6490364;31;9170;-71
2024/04/11 09:25:27;;;;;;;;;22.00;22.00;;;;;;;;6488996;31;8935;-71
2024/04/11 09:31:29;;;;;;;;;20.00;18.75;;;;;;;;6489518;39;8885;-72
2024/04/11 09:37:35;;;;;;;;;19.25;19.25;;;;;;;;6488958;46;9090;-70
2024/04/11 09:43:40;;;;;;;;;20.00;17.00;;;;;;;;6487628;39;9047;-72
2024/04/11 09:49:53;;;;;;;;;26.25;23.50;;;;;;;;6489634;47;8885;-71
2024/04/11 09:55:59;;;;;;;;;23.50;21.00;;;;;;;;6484415;39;8961;-69
2024/04/11 10:02:03;;;;;;;;;22.00;21.50;;;;;;;;6489829;31;8953;-71
2024/04/11 10:08:16;;;;;;;;;23.00;23.00;;;;;;;;6488872;39;8936;-71
2024/04/11 10:14:22;;;;;;;;;25.75;23.25;;;;;;;;6491054;47;8992;-72
2024/04/11 10:20:25;;;;;;;;;25.00;25.00;;;;;;;;6493440;39;8949;-73
2024/04/11 10:26:33;;;;;;;;;27.75;26.50;;;;;;;;6492425;39;8925;-73
2024/04/11 10:32:39;;;;;;;;;36.00;33.00;;;;;;;;6492682;47;8878;-70
2024/04/11 10:38:45;;;;;;;;;33.50;32.50;;;;;;;;6492203;39;8975;-71
2024/04/11 10:44:47;;;;;;;;;27.50;24.00;;;;;;;;6492929;39;8934;-71
2024/04/11 10:50:49;;;;;;;;;27.00;26.25;;;;;;;;6493557;46;8885;-71
2024/04/11 10:56:54;;;;;;;;;26.75;26.75;;;;;;;;6488864;39;9001;-70
2024/04/11 11:03:11;;;;;;;;;26.00;25.00;;;;;;;;6494284;31;8958;-69
2024/04/11 11:09:16;;;;;;;;;27.75;25.25;;;;;;;;6492564;46;8931;-70
2024/04/11 11:15:25;;;;;;;;;21.50;20.50;;;;;;;;6491668;31;9126;-69
2024/04/11 11:21:32;;;;;;;;;21.75;21.75;;;;;;;;6491250;39;8948;-71
2024/04/11 11:27:35;;;;;;;;;26.00;24.25;;;;;;;;6490226;31;8989;-72
2024/04/11 11:33:41;;;;;;;;;19.25;19.25;;;;;;;;6489061;46;8899;-70
2024/04/11 11:39:50;;;;;;;;;24.75;24.75;;;;;;;;6492801;46;9019;-72
2024/04/11 11:52:14;;;;;;;;;23.25;22.00;;;;;;;;6494383;46;8903;-70
2024/04/11 11:58:23;;;;;;;;;23.25;22.75;;;;;;;;6491870;39;9066;-71
2024/04/11 12:04:30;;;;;;;;;46.50;37.75;;;;;;;;6488078;46;8954;-71
2024/04/11 12:11:22;;;;;;;;;39.50;34.25;;;;;;;;6492381;39;8934;-71
2024/04/11 12:17:04;;;;;;;;;28.00;28.00;;;;;;;;6492829;39;8926;-70
2024/04/11 12:23:08;;;;;;;;;20.25;18.50;;;;;;;;6492892;31;8919;-71
2024/04/11 12:29:12;;;;;;;;;22.50;22.25;;;;;;;;6492266;39;8910;-69
2024/04/11 12:35:17;;;;;;;;;21.00;20.00;;;;;;;;6494197;39;8887;-70
2024/04/11 12:41:19;;;;;;;;;20.25;20.25;;;;;;;;6492072;46;8936;-70
2024/04/11 12:47:38;;;;;;;;;19.25;19.25;;;;;;;;6492675;39;8918;-69
2024/04/11 12:53:40;;;;;;;;;19.50;18.50;;;;;;;;6492443;39;8938;-69
2024/04/11 12:59:46;;;;;;;;;16.75;15.25;;;;;;;;6490074;46;9534;-70
2024/04/11 13:05:51;;;;;;;;;25.75;25.75;;;;;;;;6491293;39;8887;-73
2024/04/11 13:11:54;;;;;;;;;25.50;24.50;;;;;;;;6487227;39;8912;-71
2024/04/11 13:17:58;;;;;;;;;17.25;16.75;;;;;;;;6490745;31;8958;-71
2024/04/11 13:24:10;;;;;;;;;21.75;19.00;;;;;;;;6492527;46;8973;-70
2024/04/11 13:30:14;;;;;;;;;22.75;21.00;;;;;;;;6491412;39;9531;-69
2024/04/11 13:36:15;;;;;;;;;25.25;21.75;;;;;;;;6487669;39;8839;-70
2024/04/11 13:42:16;;;;;;;;;23.50;20.00;;;;;;;;6491222;39;8931;-70
2024/04/11 13:48:18;;;;;;;;;21.50;20.25;;;;;;;;6492107;39;8992;-70
2024/04/11 13:54:31;;;;;;;;;17.75;17.50;;;;;;;;6492234;39;8919;-69
2024/04/11 14:01:02;;;;;;;;;14.00;14.00;;;;;;;;6492591;31;9650;-69
2024/04/11 14:07:07;;;;;;;;;22.00;21.50;;;;;;;;6492756;39;8966;-70
2024/04/11 14:13:14;;;;;;;;;19.25;19.00;;;;;;;;6487100;39;9049;-70
2024/04/11 14:19:35;;;;;;;;;26.25;22.75;;;;;;;;6494110;39;8879;-70
2024/04/11 14:25:43;;;;;;;;;20.00;18.50;;;;;;;;6491993;46;8938;-69
2024/04/11 14:31:50;;;;;;;;;18.00;18.00;;;;;;;;6494670;31;8864;-67
2024/04/11 14:37:56;;;;;;;;;20.75;18.50;;;;;;;;6493529;31;8922;-71
2024/04/11 14:43:59;;;;;;;;;19.00;18.75;;;;;;;;6493641;39;8923;-69
2024/04/11 14:50:02;;;;;;;;;18.00;18.00;;;;;;;;6494791;39;8919;-70
2024/04/11 14:56:18;;;;;;;;;36.25;29.75;;;;;;;;6492685;46;9010;-70
2024/04/11 15:02:21;;;;;;;;;17.50;17.50;;;;;;;;6494751;39;9017;-70
2024/04/11 15:08:30;;;;;;;;;26.25;22.50;;;;;;;;6493494;46;8893;-70
2024/04/11 15:14:32;;;;;;;;;20.00;20.00;;;;;;;;6492946;39;8910;-69
2024/04/11 15:20:49;;;;;;;;;19.00;17.00;;;;;;;;6494415;39;8923;-69
2024/04/11 15:26:54;;;;;;;;;21.50;19.50;;;;;;;;6493391;39;8834;-69
2024/04/11 15:32:56;;;;;;;;;17.50;17.00;;;;;;;;6493680;39;8824;-71
2024/04/11 15:39:00;;;;;;;;;16.25;16.25;;;;;;;;6492308;46;9018;-69
2024/04/11 15:45:04;;;;;;;;;23.50;21.25;;;;;;;;6492940;39;8990;-69
2024/04/11 15:51:06;;;;;;;;;18.50;18.00;;;;;;;;6492804;46;8909;-69
2024/04/11 15:57:07;;;;;;;;;20.50;18.50;;;;;;;;6491870;46;9041;-67
2024/04/11 16:03:20;;;;;;;;;22.50;20.75;;;;;;;;6493122;39;8954;-70
2024/04/11 16:09:36;;;;;;;;;26.75;23.75;;;;;;;;6491744;39;9002;-69
2024/04/11 16:15:36;;;;;;;;;22.50;22.25;;;;;;;;6493188;39;9006;-68
2024/04/11 16:21:38;;;;;;;;;22.75;21.75;;;;;;;;6493115;31;9026;-70
2024/04/11 16:27:40;;;;;;;;;30.25;27.25;;;;;;;;6491791;46;8950;-62
2024/04/11 16:33:41;;;;;;;;;24.25;22.75;;;;;;;;6493993;39;9066;-62
2024/04/11 16:39:49;;;;;;;;;22.75;20.50;;;;;;;;6491426;46;8927;-63
2024/04/11 16:45:58;;;;;;;;;26.00;25.00;;;;;;;;6493078;39;8886;-63
2024/04/11 16:52:07;;;;;;;;;25.67;24.00;;;;;;;;6492947;31;8896;-62
2024/04/11 16:58:19;;;;;;;;;24.00;23.00;;;;;;;;6492121;39;8912;-63
2024/04/11 17:04:22;;;;;;;;;32.67;27.67;;;;;;;;6493126;39;8942;-61
2024/04/11 17:10:33;;;;;;;;;28.67;24.67;;;;;;;;6491142;46;8850;-62
2024/04/11 17:29:04;;;;;;;;;37.33;33.33;;;;;;;;6492702;39;9559;-62
2024/04/11 17:35:19;;;;;;;;;28.00;26.00;;;;;;;;6491855;46;8870;-62
2024/04/11 17:41:26;;;;;;;;;31.00;28.33;;;;;;;;6491786;46;8922;-62
2024/04/11 17:47:30;;;;;;;;;30.33;29.33;;;;;;;;6492798;39;8913;-62
2024/04/11 17:53:32;;;;;;;;;35.00;32.33;;;;;;;;6492026;39;8875;-66
2024/04/11 17:59:37;;;;;;;;;38.67;34.33;;;;;;;;6492585;47;8894;-62
2024/04/11 18:05:40;;;;;;;;;39.67;34.00;;;;;;;;6491551;39;8902;-61
2024/04/11 18:11:58;;;;;;;;;39.33;34.00;;;;;;;;6492258;39;8881;-62
2024/04/11 18:18:11;;;;;;;;;45.00;37.33;;;;;;;;6493455;31;8982;-61
2024/04/11 18:24:18;;;;;;;;;45.33;38.33;;;;;;;;6491775;39;8917;-62
2024/04/11 18:30:22;;;;;;;;;42.67;37.67;;;;;;;;6492794;47;9029;-61
2024/04/11 18:36:26;;;;;;;;;38.00;35.33;;;;;;;;6492620;31;8966;-63
2024/04/11 18:42:37;;;;;;;;;47.33;38.67;;;;;;;;6492411;39;8895;-63
2024/04/11 18:48:42;;;;;;;;;39.33;35.33;;;;;;;;6491346;39;8973;-62
2024/04/11 18:54:45;;;;;;;;;44.67;37.33;;;;;;;;6490987;47;8874;-61
2024/04/11 19:00:47;;;;;;;;;45.00;38.00;;;;;;;;6492242;39;9581;-62
2024/04/11 19:06:49;;;;;;;;;38.67;35.00;;;;;;;;6493150;39;8887;-62
2024/04/11 19:12:54;;;;;;;;;44.33;36.67;;;;;;;;6494235;46;8918;-63
2024/04/11 19:18:57;;;;;;;;;41.67;35.33;;;;;;;;6493987;39;8940;-62
2024/04/11 19:24:59;;;;;;;;;49.00;39.00;;;;;;;;6493603;39;8878;-63
2024/04/11 19:31:07;;;;;;;;;45.00;35.33;;;;;;;;6494140;39;9561;-62
2024/04/11 19:37:12;;;;;;;;;44.67;37.67;;;;;;;;6492795;31;8866;-61
2024/04/11 19:43:13;;;;;;;;;43.00;37.00;;;;;;;;6493981;39;8896;-63
2024/04/11 19:49:24;;;;;;;;;45.00;36.33;;;;;;;;6493714;31;8882;-62
2024/04/11 19:55:27;;;;;;;;;38.33;35.33;;;;;;;;6492901;46;8962;-63
2024/04/11 20:02:35;;;;;;;;;40.67;34.67;;;;;;;;6493582;46;8911;-63
2024/04/11 20:08:04;;;;;;;;;40.33;35.00;;;;;;;;6493209;39;8945;-62
2024/04/11 20:14:27;;;;;;;;;42.67;36.67;;;;;;;;6493498;39;8929;-62
2024/04/11 20:20:31;;;;;;;;;31.00;30.33;;;;;;;;6492850;31;9046;-62
2024/04/11 20:26:32;;;;;;;;;35.33;33.00;;;;;;;;6494422;39;8843;-61
2024/04/11 20:32:36;;;;;;;;;33.67;30.00;;;;;;;;6492776;46;9006;-62
2024/04/11 20:38:47;;;;;;;;;29.67;29.67;;;;;;;;6493319;39;8889;-62
2024/04/11 20:44:53;;;;;;;;;28.67;26.00;;;;;;;;6493341;39;8852;-62
2024/04/11 21:35:50;;;;;;;;;29.33;27.67;;;;;;;;6493185;39;8983;-62
2024/04/11 21:41:55;;;;;;;;;30.67;27.67;;;;;;;;6493264;39;9026;-62
2024/04/11 21:47:58;;;;;;;;;27.00;24.50;;;;;;;;6492950;39;8935;-61
2024/04/11 21:54:01;;;;;;;;;28.33;27.33;;;;;;;;6491072;46;8902;-61
2024/04/11 22:00:18;;;;;;;;;26.33;25.00;;;;;;;;6491474;39;8935;-62
2024/04/11 22:06:19;;;;;;;;;31.00;28.00;;;;;;;;6492630;39;8996;-61
2024/04/11 22:12:32;;;;;;;;;24.33;23.33;;;;;;;;6492185;39;8898;-62
2024/04/11 22:18:33;;;;;;;;;27.00;27.00;;;;;;;;6492729;47;8894;-63
2024/04/11 22:24:36;;;;;;;;;24.67;23.33;;;;;;;;6491640;47;8832;-62
2024/04/11 22:30:39;;;;;;;;;30.33;25.00;;;;;;;;6492541;31;8862;-62
2024/04/11 22:36:53;;;;;;;;;26.33;26.33;;;;;;;;6492126;39;8950;-62
2024/04/11 22:42:54;;;;;;;;;24.00;24.00;;;;;;;;6493963;39;8976;-61
2024/04/11 22:48:58;;;;;;;;;29.33;28.33;;;;;;;;6493680;31;8943;-61
2024/04/11 22:55:06;;;;;;;;;31.67;28.00;;;;;;;;6493367;46;8965;-61
2024/04/11 23:01:19;;;;;;;;;27.67;25.00;;;;;;;;6494103;39;8924;-62
2024/04/11 23:07:39;;;;;;;;;32.00;27.00;;;;;;;;6494322;39;8933;-61
2024/04/11 23:13:41;;;;;;;;;29.33;28.00;;;;;;;;6493031;46;8959;-61
2024/04/11 23:19:58;;;;;;;;;25.33;24.67;;;;;;;;6494705;39;8859;-61
2024/04/11 23:26:03;;;;;;;;;28.67;28.67;;;;;;;;6493604;39;8930;-61
2024/04/11 23:32:08;;;;;;;;;30.33;28.67;;;;;;;;6494596;39;8847;-62
2024/04/11 23:38:11;;;;;;;;;31.67;26.67;;;;;;;;6493384;31;9917;-62
2024/04/11 23:44:26;;;;;;;;;32.33;28.33;;;;;;;;6493405;46;8846;-61
2024/04/11 23:50:38;;;;;;;;;30.00;30.00;;;;;;;;6492585;46;8876;-61
2024/04/11 23:56:42;;;;;;;;;29.00;26.00;;;;;;;;6492607;46;8882;-62
